sensor_id;sensor_type;location;lat;lon;timestamp;temperature;humidity
21108;DHT22;10712;52.944;9.098;2022-07-29T00:00:53;14.20;74.00
21108;DHT22;10712;52.944;9.098;2022-07-29T00:03:19;14.20;74.00
21108;DHT22;10712;52.944;9.098;2022-07-29T00:05:45;14.20;73.90
21108;DHT22;10712;52.944;9.098;2022-07-29T00:08:11;14.20;73.90
21108;DHT22;10712;52.944;9.098;2022-07-29T00:10:36;14.30;73.80
21108;DHT22;10712;52.944;9.098;2022-07-29T00:13:03;14.30;73.70
21108;DHT22;10712;52.944;9.098;2022-07-29T00:15:28;14.30;73.50
21108;DHT22;10712;52.944;9.098;2022-07-29T00:17:54;14.30;73.40
21108;DHT22;10712;52.944;9.098;2022-07-29T00:20:20;14.40;73.30
21108;DHT22;10712;52.944;9.098;2022-07-29T00:22:46;14.40;73.20
21108;DHT22;10712;52.944;9.098;2022-07-29T00:25:13;14.40;73.10
21108;DHT22;10712;52.944;9.098;2022-07-29T00:27:39;14.40;73.10
21108;DHT22;10712;52.944;9.098;2022-07-29T00:30:05;14.30;73.20
21108;DHT22;10712;52.944;9.098;2022-07-29T00:32:32;14.30;73.10
21108;DHT22;10712;52.944;9.098;2022-07-29T00:34:58;14.40;73.20
21108;DHT22;10712;52.944;9.098;2022-07-29T00:37:42;14.30;73.00
21108;DHT22;10712;52.944;9.098;2022-07-29T00:40:08;14.30;73.00
21108;DHT22;10712;52.944;9.098;2022-07-29T00:42:44;14.30;73.20
21108;DHT22;10712;52.944;9.098;2022-07-29T00:45:15;14.20;73.30
21108;DHT22;10712;52.944;9.098;2022-07-29T00:47:42;14.20;73.40
21108;DHT22;10712;52.944;9.098;2022-07-29T00:50:09;14.10;73.60
21108;DHT22;10712;52.944;9.098;2022-07-29T00:52:38;14.10;73.70
21108;DHT22;10712;52.944;9.098;2022-07-29T00:55:09;14.10;73.80
21108;DHT22;10712;52.944;9.098;2022-07-29T00:57:38;14.00;74.00
21108;DHT22;10712;52.944;9.098;2022-07-29T01:00:07;14.00;74.10
21108;DHT22;10712;52.944;9.098;2022-07-29T01:02:35;14.00;74.30
21108;DHT22;10712;52.944;9.098;2022-07-29T01:05:02;13.90;74.50
21108;DHT22;10712;52.944;9.098;2022-07-29T01:07:30;13.90;74.70
21108;DHT22;10712;52.944;9.098;2022-07-29T01:09:59;13.90;74.80
21108;DHT22;10712;52.944;9.098;2022-07-29T01:12:28;13.90;74.90
21108;DHT22;10712;52.944;9.098;2022-07-29T01:14:58;13.90;75.00
21108;DHT22;10712;52.944;9.098;2022-07-29T01:17:32;13.90;75.00
21108;DHT22;10712;52.944;9.098;2022-07-29T01:28:46;13.90;74.80
21108;DHT22;10712;52.944;9.098;2022-07-29T01:31:16;13.90;74.70
21108;DHT22;10712;52.944;9.098;2022-07-29T01:33:55;13.90;74.60
21108;DHT22;10712;52.944;9.098;2022-07-29T01:36:30;13.90;74.70
21108;DHT22;10712;52.944;9.098;2022-07-29T01:39:19;13.90;74.90
21108;DHT22;10712;52.944;9.098;2022-07-29T01:42:20;13.90;74.90
21108;DHT22;10712;52.944;9.098;2022-07-29T01:47:42;13.80;75.00
21108;DHT22;10712;52.944;9.098;2022-07-29T01:50:15;13.80;75.10
21108;DHT22;10712;52.944;9.098;2022-07-29T01:52:49;13.90;74.90
21108;DHT22;10712;52.944;9.098;2022-07-29T01:55:27;13.90;74.80
21108;DHT22;10712;52.944;9.098;2022-07-29T01:57:57;13.90;74.80
21108;DHT22;10712;52.944;9.098;2022-07-29T02:00:25;13.90;74.70
21108;DHT22;10712;52.944;9.098;2022-07-29T02:02:53;13.90;74.70
21108;DHT22;10712;52.944;9.098;2022-07-29T02:05:21;13.90;74.80
21108;DHT22;10712;52.944;9.098;2022-07-29T02:07:49;14.00;74.70
21108;DHT22;10712;52.944;9.098;2022-07-29T02:10:21;14.00;74.50
21108;DHT22;10712;52.944;9.098;2022-07-29T02:12:50;14.00;74.40
21108;DHT22;10712;52.944;9.098;2022-07-29T02:15:18;14.10;74.50
21108;DHT22;10712;52.944;9.098;2022-07-29T02:17:57;14.00;74.50
21108;DHT22;10712;52.944;9.098;2022-07-29T02:20:26;14.00;74.50
21108;DHT22;10712;52.944;9.098;2022-07-29T02:22:55;14.10;74.60
21108;DHT22;10712;52.944;9.098;2022-07-29T02:25:24;14.00;74.60
21108;DHT22;10712;52.944;9.098;2022-07-29T02:27:52;14.00;74.50
21108;DHT22;10712;52.944;9.098;2022-07-29T02:30:20;14.00;74.40
21108;DHT22;10712;52.944;9.098;2022-07-29T02:32:48;14.10;74.40
21108;DHT22;10712;52.944;9.098;2022-07-29T02:35:16;14.10;74.30
21108;DHT22;10712;52.944;9.098;2022-07-29T02:37:44;14.10;74.30
21108;DHT22;10712;52.944;9.098;2022-07-29T02:40:32;14.10;74.10
21108;DHT22;10712;52.944;9.098;2022-07-29T02:43:02;14.20;74.10
21108;DHT22;10712;52.944;9.098;2022-07-29T02:45:32;14.20;74.10
21108;DHT22;10712;52.944;9.098;2022-07-29T02:48:00;14.20;74.00
21108;DHT22;10712;52.944;9.098;2022-07-29T02:50:37;14.20;73.90
21108;DHT22;10712;52.944;9.098;2022-07-29T02:53:18;14.30;73.70
21108;DHT22;10712;52.944;9.098;2022-07-29T02:55:59;14.30;73.70
21108;DHT22;10712;52.944;9.098;2022-07-29T02:58:34;14.30;73.60
21108;DHT22;10712;52.944;9.098;2022-07-29T03:01:15;14.30;73.60
21108;DHT22;10712;52.944;9.098;2022-07-29T03:03:46;14.30;73.40
21108;DHT22;10712;52.944;9.098;2022-07-29T03:06:15;14.40;73.30
21108;DHT22;10712;52.944;9.098;2022-07-29T03:08:44;14.40;73.20
21108;DHT22;10712;52.944;9.098;2022-07-29T03:11:12;14.40;73.20
21108;DHT22;10712;52.944;9.098;2022-07-29T03:13:39;14.30;73.40
21108;DHT22;10712;52.944;9.098;2022-07-29T03:16:07;14.30;73.40
21108;DHT22;10712;52.944;9.098;2022-07-29T03:18:35;14.30;73.40
21108;DHT22;10712;52.944;9.098;2022-07-29T03:21:03;14.30;73.60
21108;DHT22;10712;52.944;9.098;2022-07-29T03:23:29;14.30;73.60
21108;DHT22;10712;52.944;9.098;2022-07-29T03:25:55;14.20;73.90
21108;DHT22;10712;52.944;9.098;2022-07-29T03:28:22;14.20;74.30
21108;DHT22;10712;52.944;9.098;2022-07-29T03:30:48;14.10;74.40
21108;DHT22;10712;52.944;9.098;2022-07-29T03:33:17;14.10;74.60
21108;DHT22;10712;52.944;9.098;2022-07-29T03:35:43;14.10;74.70
21108;DHT22;10712;52.944;9.098;2022-07-29T03:38:09;14.10;74.70
21108;DHT22;10712;52.944;9.098;2022-07-29T03:40:39;14.10;74.60
21108;DHT22;10712;52.944;9.098;2022-07-29T03:43:11;14.20;74.50
21108;DHT22;10712;52.944;9.098;2022-07-29T03:45:42;14.20;74.20
21108;DHT22;10712;52.944;9.098;2022-07-29T03:48:15;14.20;74.10
21108;DHT22;10712;52.944;9.098;2022-07-29T03:50:43;14.20;74.20
21108;DHT22;10712;52.944;9.098;2022-07-29T03:53:10;14.20;74.20
21108;DHT22;10712;52.944;9.098;2022-07-29T03:55:41;14.20;74.40
21108;DHT22;10712;52.944;9.098;2022-07-29T03:58:11;14.10;74.50
21108;DHT22;10712;52.944;9.098;2022-07-29T04:00:40;14.10;74.40
21108;DHT22;10712;52.944;9.098;2022-07-29T04:03:06;14.10;74.50
21108;DHT22;10712;52.944;9.098;2022-07-29T04:05:32;14.10;74.60
21108;DHT22;10712;52.944;9.098;2022-07-29T04:07:58;14.10;74.60
21108;DHT22;10712;52.944;9.098;2022-07-29T04:10:24;14.10;74.70
21108;DHT22;10712;52.944;9.098;2022-07-29T04:12:50;14.10;74.80
21108;DHT22;10712;52.944;9.098;2022-07-29T04:15:16;14.10;74.70
21108;DHT22;10712;52.944;9.098;2022-07-29T04:17:41;14.00;74.80
21108;DHT22;10712;52.944;9.098;2022-07-29T04:20:09;14.00;74.80
21108;DHT22;10712;52.944;9.098;2022-07-29T04:22:35;14.00;74.90
21108;DHT22;10712;52.944;9.098;2022-07-29T04:25:01;14.00;75.10
21108;DHT22;10712;52.944;9.098;2022-07-29T04:27:26;14.00;75.20
21108;DHT22;10712;52.944;9.098;2022-07-29T04:29:52;14.00;75.20
21108;DHT22;10712;52.944;9.098;2022-07-29T04:32:18;14.00;75.20
21108;DHT22;10712;52.944;9.098;2022-07-29T04:34:44;14.00;75.10
21108;DHT22;10712;52.944;9.098;2022-07-29T04:37:12;14.00;75.10
21108;DHT22;10712;52.944;9.098;2022-07-29T04:39:38;14.00;75.30
21108;DHT22;10712;52.944;9.098;2022-07-29T04:42:04;14.00;75.40
21108;DHT22;10712;52.944;9.098;2022-07-29T04:44:30;14.00;75.50
21108;DHT22;10712;52.944;9.098;2022-07-29T04:46:56;14.10;75.60
21108;DHT22;10712;52.944;9.098;2022-07-29T04:49:22;14.10;75.50
21108;DHT22;10712;52.944;9.098;2022-07-29T04:51:48;14.10;75.60
21108;DHT22;10712;52.944;9.098;2022-07-29T04:54:14;14.10;75.60
21108;DHT22;10712;52.944;9.098;2022-07-29T04:56:40;14.10;75.60
21108;DHT22;10712;52.944;9.098;2022-07-29T04:59:07;14.10;75.70
21108;DHT22;10712;52.944;9.098;2022-07-29T05:01:32;14.10;75.80
21108;DHT22;10712;52.944;9.098;2022-07-29T05:03:58;14.10;75.80
21108;DHT22;10712;52.944;9.098;2022-07-29T05:06:24;14.20;75.90
21108;DHT22;10712;52.944;9.098;2022-07-29T05:08:50;14.20;75.80
21108;DHT22;10712;52.944;9.098;2022-07-29T05:11:16;14.20;75.60
21108;DHT22;10712;52.944;9.098;2022-07-29T05:13:42;14.30;75.70
21108;DHT22;10712;52.944;9.098;2022-07-29T05:16:08;14.30;75.90
21108;DHT22;10712;52.944;9.098;2022-07-29T05:18:34;14.30;76.10
21108;DHT22;10712;52.944;9.098;2022-07-29T05:21:00;14.40;75.90
21108;DHT22;10712;52.944;9.098;2022-07-29T05:23:26;14.40;75.90
21108;DHT22;10712;52.944;9.098;2022-07-29T05:25:51;14.40;75.70
21108;DHT22;10712;52.944;9.098;2022-07-29T05:28:17;14.50;75.70
21108;DHT22;10712;52.944;9.098;2022-07-29T05:30:43;14.50;75.70
21108;DHT22;10712;52.944;9.098;2022-07-29T05:33:10;14.60;75.60
21108;DHT22;10712;52.944;9.098;2022-07-29T05:35:36;14.60;75.40
21108;DHT22;10712;52.944;9.098;2022-07-29T05:38:03;14.70;75.20
21108;DHT22;10712;52.944;9.098;2022-07-29T05:40:29;14.70;75.00
21108;DHT22;10712;52.944;9.098;2022-07-29T05:42:55;14.70;74.90
21108;DHT22;10712;52.944;9.098;2022-07-29T05:45:21;14.80;75.40
21108;DHT22;10712;52.944;9.098;2022-07-29T05:47:48;14.80;75.50
21108;DHT22;10712;52.944;9.098;2022-07-29T05:50:14;14.90;75.30
21108;DHT22;10712;52.944;9.098;2022-07-29T05:52:40;14.90;75.10
21108;DHT22;10712;52.944;9.098;2022-07-29T05:55:06;14.90;74.80
21108;DHT22;10712;52.944;9.098;2022-07-29T05:57:32;15.00;74.70
21108;DHT22;10712;52.944;9.098;2022-07-29T05:59:58;15.00;74.70
21108;DHT22;10712;52.944;9.098;2022-07-29T06:02:24;15.10;74.50
21108;DHT22;10712;52.944;9.098;2022-07-29T06:04:50;15.10;74.30
21108;DHT22;10712;52.944;9.098;2022-07-29T06:07:15;15.10;74.20
21108;DHT22;10712;52.944;9.098;2022-07-29T06:09:42;15.20;74.10
21108;DHT22;10712;52.944;9.098;2022-07-29T06:12:08;15.20;74.20
21108;DHT22;10712;52.944;9.098;2022-07-29T06:14:34;15.30;74.60
21108;DHT22;10712;52.944;9.098;2022-07-29T06:17:01;15.30;74.60
21108;DHT22;10712;52.944;9.098;2022-07-29T06:19:27;15.30;74.50
21108;DHT22;10712;52.944;9.098;2022-07-29T06:21:53;15.30;74.30
21108;DHT22;10712;52.944;9.098;2022-07-29T06:24:19;15.40;74.60
21108;DHT22;10712;52.944;9.098;2022-07-29T06:26:45;15.40;74.80
21108;DHT22;10712;52.944;9.098;2022-07-29T06:29:11;15.40;74.60
21108;DHT22;10712;52.944;9.098;2022-07-29T06:31:37;15.50;74.30
21108;DHT22;10712;52.944;9.098;2022-07-29T06:34:05;15.60;74.20
21108;DHT22;10712;52.944;9.098;2022-07-29T06:36:34;15.60;74.10
21108;DHT22;10712;52.944;9.098;2022-07-29T06:39:04;15.70;74.00
21108;DHT22;10712;52.944;9.098;2022-07-29T06:41:31;15.70;73.80
21108;DHT22;10712;52.944;9.098;2022-07-29T06:44:05;15.80;73.50
21108;DHT22;10712;52.944;9.098;2022-07-29T06:46:31;15.90;73.40
21108;DHT22;10712;52.944;9.098;2022-07-29T06:48:57;16.00;73.20
21108;DHT22;10712;52.944;9.098;2022-07-29T06:51:23;16.20;73.10
21108;DHT22;10712;52.944;9.098;2022-07-29T06:53:50;16.30;72.80
21108;DHT22;10712;52.944;9.098;2022-07-29T06:56:17;16.40;72.60
21108;DHT22;10712;52.944;9.098;2022-07-29T06:58:43;16.50;72.10
21108;DHT22;10712;52.944;9.098;2022-07-29T07:01:08;16.60;72.00
21108;DHT22;10712;52.944;9.098;2022-07-29T07:03:34;16.60;71.80
21108;DHT22;10712;52.944;9.098;2022-07-29T07:06:00;16.70;71.50
21108;DHT22;10712;52.944;9.098;2022-07-29T07:08:26;16.80;71.30
21108;DHT22;10712;52.944;9.098;2022-07-29T07:10:52;16.90;71.40
21108;DHT22;10712;52.944;9.098;2022-07-29T07:13:19;17.00;71.20
21108;DHT22;10712;52.944;9.098;2022-07-29T07:15:45;17.00;71.00
21108;DHT22;10712;52.944;9.098;2022-07-29T07:18:14;17.10;70.50
21108;DHT22;10712;52.944;9.098;2022-07-29T07:20:41;17.20;70.10
21108;DHT22;10712;52.944;9.098;2022-07-29T07:23:07;17.30;69.70
21108;DHT22;10712;52.944;9.098;2022-07-29T07:25:33;17.30;69.50
21108;DHT22;10712;52.944;9.098;2022-07-29T07:27:59;17.40;69.20
21108;DHT22;10712;52.944;9.098;2022-07-29T07:30:25;17.50;69.10
21108;DHT22;10712;52.944;9.098;2022-07-29T07:32:52;17.50;68.80
21108;DHT22;10712;52.944;9.098;2022-07-29T07:35:19;17.50;68.40
21108;DHT22;10712;52.944;9.098;2022-07-29T07:37:45;17.60;68.30
21108;DHT22;10712;52.944;9.098;2022-07-29T07:40:12;17.60;68.30
21108;DHT22;10712;52.944;9.098;2022-07-29T07:42:39;17.60;68.30
21108;DHT22;10712;52.944;9.098;2022-07-29T07:45:07;17.70;68.30
21108;DHT22;10712;52.944;9.098;2022-07-29T07:47:35;17.80;68.40
21108;DHT22;10712;52.944;9.098;2022-07-29T07:50:04;17.80;68.80
21108;DHT22;10712;52.944;9.098;2022-07-29T07:52:31;17.90;68.80
21108;DHT22;10712;52.944;9.098;2022-07-29T07:54:57;18.00;68.80
21108;DHT22;10712;52.944;9.098;2022-07-29T07:57:23;18.10;68.60
21108;DHT22;10712;52.944;9.098;2022-07-29T07:59:49;18.20;68.30
21108;DHT22;10712;52.944;9.098;2022-07-29T08:02:15;18.30;68.20
21108;DHT22;10712;52.944;9.098;2022-07-29T08:04:41;18.40;67.90
21108;DHT22;10712;52.944;9.098;2022-07-29T08:07:08;18.50;67.60
21108;DHT22;10712;52.944;9.098;2022-07-29T08:09:35;18.60;67.10
21108;DHT22;10712;52.944;9.098;2022-07-29T08:12:01;18.70;66.70
21108;DHT22;10712;52.944;9.098;2022-07-29T08:14:30;18.90;66.40
21108;DHT22;10712;52.944;9.098;2022-07-29T08:16:56;19.00;65.80
21108;DHT22;10712;52.944;9.098;2022-07-29T08:19:22;19.10;65.60
21108;DHT22;10712;52.944;9.098;2022-07-29T08:21:47;19.30;65.70
21108;DHT22;10712;52.944;9.098;2022-07-29T08:24:13;19.40;65.10
21108;DHT22;10712;52.944;9.098;2022-07-29T08:26:58;19.60;64.40
21108;DHT22;10712;52.944;9.098;2022-07-29T08:29:23;19.70;64.20
21108;DHT22;10712;52.944;9.098;2022-07-29T08:31:49;19.90;63.60
21108;DHT22;10712;52.944;9.098;2022-07-29T08:34:15;20.00;63.10
21108;DHT22;10712;52.944;9.098;2022-07-29T08:36:41;20.10;63.00
21108;DHT22;10712;52.944;9.098;2022-07-29T08:39:07;20.20;62.70
21108;DHT22;10712;52.944;9.098;2022-07-29T08:41:33;20.40;61.90
21108;DHT22;10712;52.944;9.098;2022-07-29T08:43:59;20.50;60.20
21108;DHT22;10712;52.944;9.098;2022-07-29T08:46:25;20.70;60.00
21108;DHT22;10712;52.944;9.098;2022-07-29T08:48:51;20.80;59.80
21108;DHT22;10712;52.944;9.098;2022-07-29T08:51:21;20.90;59.90
21108;DHT22;10712;52.944;9.098;2022-07-29T08:53:48;21.00;59.90
21108;DHT22;10712;52.944;9.098;2022-07-29T08:56:16;21.00;59.80
21108;DHT22;10712;52.944;9.098;2022-07-29T08:58:44;21.00;59.30
21108;DHT22;10712;52.944;9.098;2022-07-29T09:01:15;21.10;58.60
21108;DHT22;10712;52.944;9.098;2022-07-29T09:03:44;21.20;58.00
21108;DHT22;10712;52.944;9.098;2022-07-29T09:06:15;21.30;57.90
21108;DHT22;10712;52.944;9.098;2022-07-29T09:08:44;21.40;58.50
21108;DHT22;10712;52.944;9.098;2022-07-29T09:11:11;21.50;58.30
21108;DHT22;10712;52.944;9.098;2022-07-29T09:13:39;21.60;58.70
21108;DHT22;10712;52.944;9.098;2022-07-29T09:16:05;21.70;58.00
21108;DHT22;10712;52.944;9.098;2022-07-29T09:18:39;21.80;57.90
21108;DHT22;10712;52.944;9.098;2022-07-29T09:21:09;21.90;57.60
21108;DHT22;10712;52.944;9.098;2022-07-29T09:24:13;22.00;57.40
21108;DHT22;10712;52.944;9.098;2022-07-29T09:26:44;22.10;57.60
21108;DHT22;10712;52.944;9.098;2022-07-29T09:29:14;22.20;57.40
21108;DHT22;10712;52.944;9.098;2022-07-29T09:31:46;22.30;57.00
21108;DHT22;10712;52.944;9.098;2022-07-29T09:34:15;22.30;56.80
21108;DHT22;10712;52.944;9.098;2022-07-29T09:36:50;22.30;56.60
21108;DHT22;10712;52.944;9.098;2022-07-29T09:39:28;22.40;57.10
21108;DHT22;10712;52.944;9.098;2022-07-29T09:42:04;22.50;56.80
21108;DHT22;10712;52.944;9.098;2022-07-29T09:44:45;22.50;56.60
21108;DHT22;10712;52.944;9.098;2022-07-29T09:47:13;22.60;56.10
21108;DHT22;10712;52.944;9.098;2022-07-29T09:52:24;22.70;55.10
21108;DHT22;10712;52.944;9.098;2022-07-29T09:54:50;22.80;54.40
21108;DHT22;10712;52.944;9.098;2022-07-29T09:57:27;22.90;53.50
21108;DHT22;10712;52.944;9.098;2022-07-29T10:00:07;22.90;52.90
21108;DHT22;10712;52.944;9.098;2022-07-29T10:02:42;23.00;53.10
21108;DHT22;10712;52.944;9.098;2022-07-29T10:05:19;23.00;53.60
21108;DHT22;10712;52.944;9.098;2022-07-29T10:10:29;23.10;53.00
21108;DHT22;10712;52.944;9.098;2022-07-29T10:12:59;23.10;52.50
21108;DHT22;10712;52.944;9.098;2022-07-29T10:15:31;23.10;52.70
21108;DHT22;10712;52.944;9.098;2022-07-29T10:17:59;23.20;52.50
21108;DHT22;10712;52.944;9.098;2022-07-29T10:20:27;23.20;52.30
21108;DHT22;10712;52.944;9.098;2022-07-29T10:22:54;23.30;52.70
21108;DHT22;10712;52.944;9.098;2022-07-29T10:25:21;23.30;52.40
21108;DHT22;10712;52.944;9.098;2022-07-29T10:27:48;23.30;52.50
21108;DHT22;10712;52.944;9.098;2022-07-29T10:30:17;23.40;52.10
21108;DHT22;10712;52.944;9.098;2022-07-29T10:44:06;23.40;51.80
21108;DHT22;10712;52.944;9.098;2022-07-29T10:46:40;23.40;51.40
21108;DHT22;10712;52.944;9.098;2022-07-29T10:57:26;23.50;52.20
21108;DHT22;10712;52.944;9.098;2022-07-29T11:05:15;23.60;51.90
21108;DHT22;10712;52.944;9.098;2022-07-29T11:10:38;23.80;51.70
21108;DHT22;10712;52.944;9.098;2022-07-29T11:13:05;23.90;51.10
21108;DHT22;10712;52.944;9.098;2022-07-29T11:15:54;24.10;51.20
21108;DHT22;10712;52.944;9.098;2022-07-29T11:18:21;24.20;51.90
21108;DHT22;10712;52.944;9.098;2022-07-29T11:20:50;24.40;52.20
21108;DHT22;10712;52.944;9.098;2022-07-29T11:26:17;24.50;50.80
21108;DHT22;10712;52.944;9.098;2022-07-29T11:28:54;24.60;50.50
21108;DHT22;10712;52.944;9.098;2022-07-29T11:34:29;24.60;48.90
21108;DHT22;10712;52.944;9.098;2022-07-29T11:39:34;24.70;47.40
21108;DHT22;10712;52.944;9.098;2022-07-29T11:50:13;24.70;46.70
21108;DHT22;10712;52.944;9.098;2022-07-29T11:52:47;24.70;46.50
21108;DHT22;10712;52.944;9.098;2022-07-29T11:55:19;24.70;46.90
21108;DHT22;10712;52.944;9.098;2022-07-29T11:57:55;24.80;47.00
21108;DHT22;10712;52.944;9.098;2022-07-29T12:00:33;24.80;47.30
21108;DHT22;10712;52.944;9.098;2022-07-29T12:03:05;24.80;47.40
21108;DHT22;10712;52.944;9.098;2022-07-29T12:05:36;24.90;47.10
21108;DHT22;10712;52.944;9.098;2022-07-29T12:10:46;25.10;47.40
21108;DHT22;10712;52.944;9.098;2022-07-29T12:13:15;25.10;46.90
21108;DHT22;10712;52.944;9.098;2022-07-29T12:15:50;25.20;47.10
21108;DHT22;10712;52.944;9.098;2022-07-29T12:18:19;25.20;46.70
21108;DHT22;10712;52.944;9.098;2022-07-29T12:20:46;25.20;46.70
21108;DHT22;10712;52.944;9.098;2022-07-29T12:23:14;25.30;47.10
21108;DHT22;10712;52.944;9.098;2022-07-29T12:25:43;25.30;47.50
21108;DHT22;10712;52.944;9.098;2022-07-29T12:28:14;25.50;47.50
21108;DHT22;10712;52.944;9.098;2022-07-29T12:30:48;25.60;47.10
21108;DHT22;10712;52.944;9.098;2022-07-29T12:33:16;25.60;46.50
21108;DHT22;10712;52.944;9.098;2022-07-29T12:35:54;25.60;46.20
21108;DHT22;10712;52.944;9.098;2022-07-29T12:38:23;25.60;46.10
21108;DHT22;10712;52.944;9.098;2022-07-29T12:40:51;25.60;46.70
21108;DHT22;10712;52.944;9.098;2022-07-29T12:43:20;25.60;47.00
21108;DHT22;10712;52.944;9.098;2022-07-29T12:45:55;25.60;47.00
21108;DHT22;10712;52.944;9.098;2022-07-29T12:48:44;25.60;46.90
21108;DHT22;10712;52.944;9.098;2022-07-29T12:51:11;25.50;47.00
21108;DHT22;10712;52.944;9.098;2022-07-29T12:53:39;25.50;47.10
21108;DHT22;10712;52.944;9.098;2022-07-29T12:56:06;25.50;47.40
21108;DHT22;10712;52.944;9.098;2022-07-29T12:58:41;25.60;47.10
21108;DHT22;10712;52.944;9.098;2022-07-29T13:01:10;25.60;47.00
21108;DHT22;10712;52.944;9.098;2022-07-29T13:03:50;25.60;46.70
21108;DHT22;10712;52.944;9.098;2022-07-29T13:06:40;25.70;47.30
21108;DHT22;10712;52.944;9.098;2022-07-29T13:09:16;25.70;46.00
21108;DHT22;10712;52.944;9.098;2022-07-29T13:11:47;25.70;46.30
21108;DHT22;10712;52.944;9.098;2022-07-29T13:22:19;25.70;45.80
21108;DHT22;10712;52.944;9.098;2022-07-29T13:24:59;25.70;45.40
21108;DHT22;10712;52.944;9.098;2022-07-29T13:27:30;25.70;45.70
21108;DHT22;10712;52.944;9.098;2022-07-29T13:30:00;25.60;45.60
21108;DHT22;10712;52.944;9.098;2022-07-29T13:32:29;25.60;46.00
21108;DHT22;10712;52.944;9.098;2022-07-29T13:34:59;25.60;46.10
21108;DHT22;10712;52.944;9.098;2022-07-29T13:37:28;25.50;46.40
21108;DHT22;10712;52.944;9.098;2022-07-29T13:39:57;25.50;46.30
21108;DHT22;10712;52.944;9.098;2022-07-29T13:42:25;25.50;46.20
21108;DHT22;10712;52.944;9.098;2022-07-29T13:44:52;25.50;45.80
21108;DHT22;10712;52.944;9.098;2022-07-29T13:47:21;25.50;46.00
21108;DHT22;10712;52.944;9.098;2022-07-29T13:49:48;25.50;46.70
21108;DHT22;10712;52.944;9.098;2022-07-29T13:52:15;25.50;46.70
21108;DHT22;10712;52.944;9.098;2022-07-29T13:54:42;25.50;46.50
21108;DHT22;10712;52.944;9.098;2022-07-29T13:57:09;25.50;46.40
21108;DHT22;10712;52.944;9.098;2022-07-29T13:59:36;25.50;46.30
21108;DHT22;10712;52.944;9.098;2022-07-29T14:02:03;25.50;46.20
21108;DHT22;10712;52.944;9.098;2022-07-29T14:04:28;25.50;46.40
21108;DHT22;10712;52.944;9.098;2022-07-29T14:06:54;25.60;46.50
21108;DHT22;10712;52.944;9.098;2022-07-29T14:09:20;25.60;46.30
21108;DHT22;10712;52.944;9.098;2022-07-29T14:11:46;25.60;45.70
21108;DHT22;10712;52.944;9.098;2022-07-29T14:14:14;25.50;45.80
21108;DHT22;10712;52.944;9.098;2022-07-29T14:16:40;25.50;46.00
21108;DHT22;10712;52.944;9.098;2022-07-29T14:19:06;25.50;46.00
21108;DHT22;10712;52.944;9.098;2022-07-29T14:21:32;25.50;45.80
21108;DHT22;10712;52.944;9.098;2022-07-29T14:23:58;25.60;45.10
21108;DHT22;10712;52.944;9.098;2022-07-29T14:26:24;25.60;45.20
21108;DHT22;10712;52.944;9.098;2022-07-29T14:28:50;25.50;46.30
21108;DHT22;10712;52.944;9.098;2022-07-29T14:31:16;25.50;46.90
21108;DHT22;10712;52.944;9.098;2022-07-29T14:33:42;25.50;45.80
21108;DHT22;10712;52.944;9.098;2022-07-29T14:36:08;25.50;46.40
21108;DHT22;10712;52.944;9.098;2022-07-29T14:38:35;25.40;45.90
21108;DHT22;10712;52.944;9.098;2022-07-29T14:41:03;25.40;45.80
21108;DHT22;10712;52.944;9.098;2022-07-29T14:43:29;25.30;46.00
21108;DHT22;10712;52.944;9.098;2022-07-29T14:45:56;25.20;45.90
21108;DHT22;10712;52.944;9.098;2022-07-29T14:48:22;25.20;46.50
21108;DHT22;10712;52.944;9.098;2022-07-29T14:50:48;25.10;46.90
21108;DHT22;10712;52.944;9.098;2022-07-29T14:53:13;25.10;47.30
21108;DHT22;10712;52.944;9.098;2022-07-29T14:55:40;25.10;47.20
21108;DHT22;10712;52.944;9.098;2022-07-29T14:58:06;25.10;47.60
21108;DHT22;10712;52.944;9.098;2022-07-29T15:00:31;25.10;47.90
21108;DHT22;10712;52.944;9.098;2022-07-29T15:03:02;25.10;48.60
21108;DHT22;10712;52.944;9.098;2022-07-29T15:05:32;25.10;49.30
21108;DHT22;10712;52.944;9.098;2022-07-29T15:07:58;25.10;49.20
21108;DHT22;10712;52.944;9.098;2022-07-29T15:10:25;25.10;49.10
21108;DHT22;10712;52.944;9.098;2022-07-29T15:12:55;25.10;49.30
21108;DHT22;10712;52.944;9.098;2022-07-29T15:15:21;25.10;49.60
21108;DHT22;10712;52.944;9.098;2022-07-29T15:17:47;25.10;49.80
21108;DHT22;10712;52.944;9.098;2022-07-29T15:20:14;25.10;49.40
21108;DHT22;10712;52.944;9.098;2022-07-29T15:22:40;25.10;48.70
21108;DHT22;10712;52.944;9.098;2022-07-29T15:25:08;25.10;48.30
21108;DHT22;10712;52.944;9.098;2022-07-29T15:27:34;25.10;48.40
21108;DHT22;10712;52.944;9.098;2022-07-29T15:29:59;25.10;49.00
21108;DHT22;10712;52.944;9.098;2022-07-29T15:32:25;25.10;47.80
21108;DHT22;10712;52.944;9.098;2022-07-29T15:34:51;25.00;47.70
21108;DHT22;10712;52.944;9.098;2022-07-29T15:37:17;25.00;47.60
21108;DHT22;10712;52.944;9.098;2022-07-29T15:39:43;25.00;48.00
21108;DHT22;10712;52.944;9.098;2022-07-29T15:42:09;24.90;48.50
21108;DHT22;10712;52.944;9.098;2022-07-29T15:44:35;24.90;48.40
21108;DHT22;10712;52.944;9.098;2022-07-29T15:47:00;24.80;48.50
21108;DHT22;10712;52.944;9.098;2022-07-29T15:49:36;24.80;48.40
21108;DHT22;10712;52.944;9.098;2022-07-29T15:52:07;24.70;48.90
21108;DHT22;10712;52.944;9.098;2022-07-29T15:54:36;24.70;48.70
21108;DHT22;10712;52.944;9.098;2022-07-29T15:57:04;24.70;49.00
21108;DHT22;10712;52.944;9.098;2022-07-29T15:59:30;24.60;49.40
21108;DHT22;10712;52.944;9.098;2022-07-29T16:01:57;24.60;49.80
21108;DHT22;10712;52.944;9.098;2022-07-29T16:04:24;24.50;50.10
21108;DHT22;10712;52.944;9.098;2022-07-29T16:06:51;24.50;49.80
21108;DHT22;10712;52.944;9.098;2022-07-29T16:09:19;24.50;49.30
21108;DHT22;10712;52.944;9.098;2022-07-29T16:11:45;24.50;49.40
21108;DHT22;10712;52.944;9.098;2022-07-29T16:14:13;24.50;48.70
21108;DHT22;10712;52.944;9.098;2022-07-29T16:16:39;24.60;48.40
21108;DHT22;10712;52.944;9.098;2022-07-29T16:19:06;24.60;48.40
21108;DHT22;10712;52.944;9.098;2022-07-29T16:21:34;24.50;48.80
21108;DHT22;10712;52.944;9.098;2022-07-29T16:24:01;24.50;49.10
21108;DHT22;10712;52.944;9.098;2022-07-29T16:26:27;24.50;49.10
21108;DHT22;10712;52.944;9.098;2022-07-29T16:28:53;24.50;49.10
21108;DHT22;10712;52.944;9.098;2022-07-29T16:31:19;24.40;49.20
21108;DHT22;10712;52.944;9.098;2022-07-29T16:33:50;24.40;48.90
21108;DHT22;10712;52.944;9.098;2022-07-29T16:36:17;24.40;49.00
21108;DHT22;10712;52.944;9.098;2022-07-29T16:38:44;24.40;49.30
21108;DHT22;10712;52.944;9.098;2022-07-29T16:41:10;24.40;49.60
21108;DHT22;10712;52.944;9.098;2022-07-29T16:43:36;24.40;49.90
21108;DHT22;10712;52.944;9.098;2022-07-29T16:46:02;24.30;49.60
21108;DHT22;10712;52.944;9.098;2022-07-29T16:48:29;24.30;49.30
21108;DHT22;10712;52.944;9.098;2022-07-29T16:50:54;24.30;49.60